Time;durP1;ratioP1;P1;durP2;ratioP2;P2;SDS_P1;SDS_P2;PMS_P1;PMS_P2;Temp;Humidity;BMP_temperature;BMP_pressure;BME280_temperature;BME280_humidity;BME280_pressure;Samples;Min_cycle;Max_cycle;Signal;HPM_P1;HPM_P2
2022/12/18 00:01:42;;;;;;;21.73;16.30;;;0.80;99.90;;;;;;6180720;28;20499;-66
2022/12/18 00:04:45;;;;;;;23.17;17.67;;;0.70;99.90;;;;;;6180743;28;20481;-67
2022/12/18 00:07:48;;;;;;;20.53;18.30;;;0.70;99.90;;;;;;6176110;28;20482;-66
2022/12/18 00:10:52;;;;;;;20.33;18.17;;;0.60;99.90;;;;;;6180576;28;20553;-66
2022/12/18 00:13:58;;;;;;;23.77;17.37;;;0.50;99.90;;;;;;6180436;28;20620;-66
2022/12/18 00:17:02;;;;;;;23.90;16.23;;;0.50;99.90;;;;;;6161343;28;20526;-66
2022/12/18 00:20:06;;;;;;;20.40;16.53;;;0.50;99.90;;;;;;6156203;28;20490;-66
2022/12/18 00:23:09;;;;;;;23.03;17.70;;;0.50;99.90;;;;;;6174653;28;20482;-66
2022/12/18 00:26:14;;;;;;;23.20;16.90;;;0.50;99.90;;;;;;6180157;28;20477;-66
2022/12/18 00:29:17;;;;;;;25.33;16.70;;;0.50;99.90;;;;;;6180088;28;20787;-67
2022/12/18 00:32:22;;;;;;;24.37;17.80;;;0.50;99.90;;;;;;6178692;28;20481;-66
2022/12/18 00:35:25;;;;;;;22.17;17.13;;;0.40;99.90;;;;;;6179823;28;20438;-67
2022/12/18 00:38:29;;;;;;;22.60;15.57;;;0.40;99.90;;;;;;6180020;28;20504;-67
2022/12/18 00:44:53;;;;;;;27.40;16.70;;;0.40;99.90;;;;;;6179779;28;20475;-66
2022/12/18 00:47:57;;;;;;;22.10;16.23;;;0.30;99.90;;;;;;6179786;28;20469;-66
2022/12/18 00:51:01;;;;;;;29.80;18.10;;;0.30;99.90;;;;;;6179802;28;20603;-66
2022/12/18 00:54:05;;;;;;;21.20;14.97;;;0.30;99.90;;;;;;6179318;28;20473;-66
2022/12/18 00:57:08;;;;;;;18.57;14.03;;;0.30;99.90;;;;;;6180181;28;20493;-67
2022/12/18 01:00:13;;;;;;;24.53;15.43;;;0.20;99.90;;;;;;6179690;28;20482;-66
2022/12/18 01:03:18;;;;;;;18.57;15.77;;;0.20;99.90;;;;;;6179306;28;20488;-66
2022/12/18 01:06:23;;;;;;;21.90;13.90;;;0.10;99.90;;;;;;6179523;28;20485;-66
2022/12/18 01:09:27;;;;;;;21.93;14.13;;;0.10;99.90;;;;;;6179434;28;20624;-67
2022/12/18 01:12:30;;;;;;;17.80;13.70;;;0.10;99.90;;;;;;6179070;28;20536;-66
2022/12/18 01:15:33;;;;;;;18.10;14.07;;;0.10;99.90;;;;;;6172248;28;20478;-66
2022/12/18 01:18:37;;;;;;;17.83;13.97;;;0.00;99.90;;;;;;6155030;28;20474;-66
2022/12/18 01:21:40;;;;;;;18.27;13.93;;;0.00;99.90;;;;;;6161273;28;20540;-66
2022/12/18 01:24:43;;;;;;;17.17;12.77;;;0.00;99.90;;;;;;6179080;28;20486;-66
2022/12/18 01:27:47;;;;;;;22.93;15.47;;;0.00;99.90;;;;;;6178837;28;20477;-67
2022/12/18 01:30:50;;;;;;;19.70;14.37;;;0.00;99.90;;;;;;6179212;28;20474;-66
2022/12/18 01:33:55;;;;;;;19.50;15.10;;;0.00;99.90;;;;;;6178294;28;20485;-67
2022/12/18 01:36:58;;;;;;;19.80;15.10;;;0.00;99.90;;;;;;6178438;28;20477;-66
2022/12/18 01:40:01;;;;;;;21.33;14.60;;;0.00;99.90;;;;;;6178528;28;20786;-67
2022/12/18 01:43:05;;;;;;;18.77;14.00;;;0.00;99.90;;;;;;6178075;28;20481;-66
2022/12/18 01:46:08;;;;;;;17.30;13.20;;;0.00;99.90;;;;;;6178543;28;20981;-66
2022/12/18 01:49:13;;;;;;;19.80;14.80;;;0.00;99.90;;;;;;6177976;28;20964;-66
2022/12/18 01:52:18;;;;;;;22.50;14.23;;;-0.10;99.90;;;;;;6178468;28;20477;-66
2022/12/18 01:55:24;;;;;;;15.77;13.30;;;0.00;99.90;;;;;;6177821;28;20478;-67
2022/12/18 01:58:36;;;;;;;22.13;14.33;;;-0.10;99.90;;;;;;6177988;28;20494;-66
2022/12/18 02:01:39;;;;;;;18.43;14.97;;;-0.10;99.90;;;;;;6177930;28;20862;-67
2022/12/18 02:04:44;;;;;;;19.43;14.40;;;-0.10;99.90;;;;;;6177898;28;20474;-66
2022/12/18 02:08:01;;;;;;;19.00;14.20;;;-0.20;99.90;;;;;;6177903;28;20954;-66
2022/12/18 02:11:11;;;;;;;17.83;13.20;;;-0.20;99.90;;;;;;6177801;28;21089;-66
2022/12/18 02:14:23;;;;;;;21.97;13.57;;;-0.20;99.90;;;;;;6173888;28;20514;-67
2022/12/18 02:17:36;;;;;;;18.57;13.27;;;-0.20;99.90;;;;;;6155665;28;20458;-66
2022/12/18 02:20:48;;;;;;;14.73;11.90;;;-0.20;99.90;;;;;;6154002;28;20618;-66
2022/12/18 02:24:02;;;;;;;21.20;14.43;;;-0.30;99.90;;;;;;6129704;28;20491;-66
2022/12/18 02:27:10;;;;;;;20.80;14.30;;;-0.20;99.90;;;;;;6130103;28;20476;-66
2022/12/18 02:30:14;;;;;;;19.50;13.80;;;-0.20;99.90;;;;;;6129665;28;20800;-66
2022/12/18 02:33:20;;;;;;;17.00;13.80;;;-0.30;99.90;;;;;;6129392;28;20595;-66
2022/12/18 02:36:24;;;;;;;20.27;14.37;;;-0.30;99.90;;;;;;6129649;28;20475;-67
2022/12/18 02:39:30;;;;;;;17.83;12.97;;;-0.30;99.90;;;;;;6129397;28;20799;-66
2022/12/18 02:42:34;;;;;;;20.60;15.20;;;-0.40;99.90;;;;;;6129393;28;20787;-66
2022/12/18 02:45:48;;;;;;;16.30;13.37;;;-0.40;99.90;;;;;;6129669;28;20483;-67
2022/12/18 02:48:55;;;;;;;15.90;12.50;;;-0.40;99.90;;;;;;6129355;28;20976;-66
2022/12/18 02:52:05;;;;;;;15.20;13.03;;;-0.50;99.90;;;;;;6129375;28;20467;-66
2022/12/18 02:55:17;;;;;;;17.23;12.87;;;-0.50;99.90;;;;;;6128228;28;20968;-66
2022/12/18 02:58:29;;;;;;;20.60;14.50;;;-0.50;99.90;;;;;;6129364;28;20471;-66
2022/12/18 03:01:38;;;;;;;17.97;13.63;;;-0.50;99.90;;;;;;6129387;28;20484;-66
2022/12/18 03:04:48;;;;;;;17.57;13.20;;;-0.50;99.90;;;;;;6128995;28;20505;-66
2022/12/18 03:07:57;;;;;;;24.60;14.50;;;-0.50;99.90;;;;;;6129030;28;20554;-66
2022/12/18 03:11:03;;;;;;;20.93;14.80;;;-0.50;99.90;;;;;;6129141;28;20475;-66
2022/12/18 03:14:10;;;;;;;16.43;13.13;;;-0.50;99.90;;;;;;6130079;28;20495;-67
2022/12/18 03:17:18;;;;;;;17.00;12.20;;;-0.50;99.90;;;;;;6149109;28;20475;-67
2022/12/18 03:20:24;;;;;;;15.17;12.63;;;-0.50;99.90;;;;;;6152359;28;20471;-66
2022/12/18 03:23:36;;;;;;;18.53;13.30;;;-0.60;99.90;;;;;;6173302;28;20469;-66
2022/12/18 03:26:43;;;;;;;12.90;11.13;;;-0.70;99.90;;;;;;6176165;28;20929;-65
2022/12/18 03:29:51;;;;;;;16.03;11.70;;;-0.70;99.90;;;;;;6150046;28;20529;-65
2022/12/18 03:32:59;;;;;;;14.10;11.13;;;-0.70;99.90;;;;;;6144255;28;20639;-65
2022/12/18 03:36:02;;;;;;;15.90;10.67;;;-0.70;99.90;;;;;;6151659;28;20556;-65
2022/12/18 03:39:06;;;;;;;19.43;12.90;;;-0.70;99.90;;;;;;6128547;28;20487;-65
2022/12/18 03:42:15;;;;;;;15.10;12.47;;;-0.70;99.90;;;;;;6128550;28;20476;-64
2022/12/18 03:45:25;;;;;;;17.33;11.10;;;-0.70;99.90;;;;;;6141696;28;20826;-64
2022/12/18 03:48:35;;;;;;;20.17;12.30;;;-0.70;99.90;;;;;;6152090;28;20463;-65
2022/12/18 03:51:43;;;;;;;16.27;11.80;;;-0.80;99.90;;;;;;6151976;28;20474;-64
2022/12/18 03:54:47;;;;;;;19.60;12.33;;;-0.70;99.90;;;;;;6151848;28;20482;-64
2022/12/18 03:57:52;;;;;;;16.73;10.60;;;-0.80;99.90;;;;;;6152327;28;20471;-65
2022/12/18 04:01:00;;;;;;;16.20;10.20;;;-0.90;99.90;;;;;;6146534;28;20474;-64
2022/12/18 04:04:05;;;;;;;13.97;10.70;;;-0.90;99.90;;;;;;6134840;28;20951;-64
2022/12/18 04:07:09;;;;;;;16.43;10.33;;;-0.90;99.90;;;;;;6137978;28;20971;-64
2022/12/18 04:10:15;;;;;;;15.80;10.47;;;-0.90;99.90;;;;;;6143173;28;20490;-64
2022/12/18 04:13:23;;;;;;;10.73;9.60;;;-0.90;99.90;;;;;;6145100;28;20507;-64
2022/12/18 04:16:28;;;;;;;14.40;9.97;;;-0.90;99.90;;;;;;6149505;28;20761;-64
2022/12/18 04:19:31;;;;;;;13.00;9.73;;;-0.90;99.90;;;;;;6144389;28;20793;-64
2022/12/18 04:22:35;;;;;;;14.37;11.03;;;-1.00;99.90;;;;;;6167614;28;20493;-64
2022/12/18 04:25:38;;;;;;;17.73;11.43;;;-1.00;99.90;;;;;;6180120;28;20792;-64
2022/12/18 04:28:41;;;;;;;17.40;11.07;;;-1.00;99.90;;;;;;6180208;28;20540;-64
2022/12/18 04:31:46;;;;;;;15.17;10.83;;;-1.00;99.90;;;;;;6179825;28;20536;-64
2022/12/18 04:34:49;;;;;;;14.10;12.30;;;-1.00;99.90;;;;;;6179855;28;20484;-64
2022/12/18 04:37:52;;;;;;;16.90;11.60;;;-1.10;99.90;;;;;;6179756;28;20462;-64
2022/12/18 04:40:55;;;;;;;15.20;11.80;;;-1.10;99.90;;;;;;6179799;28;20481;-64
2022/12/18 04:43:58;;;;;;;17.30;12.60;;;-1.00;99.90;;;;;;6179846;28;20529;-65
2022/12/18 04:47:02;;;;;;;13.43;10.33;;;-1.00;99.90;;;;;;6179615;28;20788;-64
2022/12/18 04:50:07;;;;;;;11.80;10.37;;;-1.00;99.90;;;;;;6179838;28;20821;-64
2022/12/18 04:53:10;;;;;;;12.33;9.70;;;-1.00;99.90;;;;;;6179308;28;20509;-64
2022/12/18 04:56:14;;;;;;;11.80;10.53;;;-1.00;99.90;;;;;;6179533;28;20485;-64
2022/12/18 04:59:18;;;;;;;13.93;11.07;;;-1.10;99.90;;;;;;6179233;28;20853;-64
2022/12/18 05:02:22;;;;;;;13.73;10.50;;;-1.10;99.90;;;;;;6179293;28;20887;-65
2022/12/18 05:05:25;;;;;;;12.23;9.23;;;-1.10;99.90;;;;;;6179238;28;20455;-64
2022/12/18 05:08:29;;;;;;;12.73;9.83;;;-1.10;99.90;;;;;;6179676;28;20489;-64
2022/12/18 05:11:32;;;;;;;15.47;11.50;;;-1.20;99.90;;;;;;6179452;28;20449;-64
2022/12/18 05:14:35;;;;;;;22.27;15.03;;;-1.20;99.90;;;;;;6179101;28;20544;-64
2022/12/18 05:17:39;;;;;;;19.10;12.30;;;-1.30;99.90;;;;;;6154357;28;20993;-65
2022/12/18 05:20:42;;;;;;;16.97;12.27;;;-1.30;99.90;;;;;;6155423;28;20482;-64
2022/12/18 05:23:45;;;;;;;13.60;10.87;;;-1.20;99.90;;;;;;6151243;28;20521;-64
2022/12/18 05:26:49;;;;;;;12.20;9.97;;;-1.20;99.90;;;;;;6154778;28;20475;-64
2022/12/18 05:29:52;;;;;;;17.37;13.40;;;-1.20;99.90;;;;;;6155034;28;20466;-64
2022/12/18 05:32:56;;;;;;;12.50;10.20;;;-1.20;99.90;;;;;;6154671;28;20479;-64
2022/12/18 05:36:01;;;;;;;12.63;11.10;;;-1.20;99.90;;;;;;6154897;28;20482;-64
2022/12/18 05:39:04;;;;;;;14.70;11.53;;;-1.20;99.90;;;;;;6155178;28;20479;-64
2022/12/18 05:42:08;;;;;;;14.13;11.33;;;-1.10;99.90;;;;;;6154548;28;20471;-64
2022/12/18 05:45:11;;;;;;;15.37;12.40;;;-1.20;99.90;;;;;;6154513;28;20769;-63
2022/12/18 05:48:16;;;;;;;13.47;10.77;;;-1.10;99.90;;;;;;6154255;28;20490;-64
2022/12/18 05:51:21;;;;;;;16.80;12.67;;;-1.10;99.90;;;;;;6154427;28;20755;-64
2022/12/18 05:54:25;;;;;;;18.90;12.57;;;-1.10;99.90;;;;;;6154377;28;20919;-64
2022/12/18 05:57:28;;;;;;;17.43;13.37;;;-1.20;99.90;;;;;;6154163;28;20486;-64
2022/12/18 06:00:32;;;;;;;14.37;12.30;;;-1.20;99.90;;;;;;6154048;28;20855;-64
2022/12/18 06:03:37;;;;;;;22.37;13.10;;;-1.30;99.90;;;;;;6153960;28;20997;-64
2022/12/18 06:06:40;;;;;;;17.00;12.30;;;-1.20;99.90;;;;;;6154088;28;20867;-64
2022/12/18 06:09:43;;;;;;;16.77;11.57;;;-1.20;99.90;;;;;;6153739;28;20842;-64
2022/12/18 06:12:46;;;;;;;15.37;11.37;;;-1.20;99.90;;;;;;6153734;28;20490;-64
2022/12/18 06:15:49;;;;;;;17.07;13.53;;;-1.20;99.90;;;;;;6153945;28;20475;-64
2022/12/18 06:18:54;;;;;;;15.90;10.50;;;-1.20;99.90;;;;;;6150506;28;20551;-64
2022/12/18 06:21:58;;;;;;;13.40;11.50;;;-1.20;99.90;;;;;;6153146;28;20470;-64
2022/12/18 06:25:01;;;;;;;15.20;11.80;;;-1.10;99.90;;;;;;6143312;28;20824;-64
2022/12/18 06:28:05;;;;;;;12.17;9.80;;;-1.10;99.90;;;;;;6139068;28;20571;-65
2022/12/18 06:31:09;;;;;;;14.00;11.10;;;-1.10;99.90;;;;;;6142472;28;20486;-64
2022/12/18 06:34:13;;;;;;;17.63;13.30;;;-1.10;99.90;;;;;;6140382;28;20471;-64
2022/12/18 06:37:16;;;;;;;17.33;12.97;;;-1.00;99.90;;;;;;6139843;28;20483;-65
2022/12/18 06:40:20;;;;;;;16.47;12.97;;;-0.80;99.90;;;;;;6129419;28;20479;-65
2022/12/18 06:43:23;;;;;;;14.50;10.63;;;-0.80;99.90;;;;;;6129295;28;20935;-65
2022/12/18 06:46:27;;;;;;;16.07;11.30;;;-0.80;99.90;;;;;;6129442;28;20542;-65
2022/12/18 06:49:32;;;;;;;16.17;10.47;;;-0.70;99.90;;;;;;6128993;28;20491;-65
2022/12/18 06:52:36;;;;;;;15.60;11.50;;;-0.60;99.90;;;;;;6129135;28;21018;-66
2022/12/18 06:55:39;;;;;;;16.23;10.40;;;-0.60;99.90;;;;;;6128911;28;20480;-65
2022/12/18 06:58:43;;;;;;;11.53;8.60;;;-0.50;99.90;;;;;;6129140;28;20490;-64
2022/12/18 07:01:46;;;;;;;16.87;11.57;;;-0.40;99.90;;;;;;6129570;28;20472;-64
2022/12/18 07:04:51;;;;;;;15.23;10.60;;;-0.40;99.90;;;;;;6128894;28;20498;-64
2022/12/18 07:07:54;;;;;;;15.53;11.10;;;-0.40;99.90;;;;;;6129241;28;20838;-64
2022/12/18 07:10:57;;;;;;;12.67;10.03;;;-0.30;99.90;;;;;;6131382;28;20484;-64
2022/12/18 07:14:01;;;;;;;16.67;10.57;;;-0.30;99.90;;;;;;6133550;28;20522;-64
2022/12/18 07:17:04;;;;;;;12.63;9.20;;;-0.30;99.90;;;;;;6148026;28;20471;-64
2022/12/18 07:20:11;;;;;;;12.17;9.40;;;-0.30;99.90;;;;;;6152727;28;20557;-64
2022/12/18 07:23:14;;;;;;;10.10;8.47;;;-0.20;99.90;;;;;;6171689;28;20482;-64
2022/12/18 07:26:18;;;;;;;13.83;9.10;;;-0.10;99.90;;;;;;6176330;28;20860;-64
2022/12/18 07:29:22;;;;;;;12.33;9.10;;;0.00;99.90;;;;;;6172468;28;20478;-64
2022/12/18 07:32:25;;;;;;;11.40;8.63;;;0.00;99.90;;;;;;6176094;28;20565;-65
2022/12/18 07:35:29;;;;;;;14.80;10.63;;;0.10;99.90;;;;;;6176857;28;20456;-65
2022/12/18 07:38:33;;;;;;;11.80;9.07;;;0.20;99.90;;;;;;6176819;28;20443;-65
2022/12/18 07:41:36;;;;;;;14.10;9.90;;;0.30;99.90;;;;;;6178223;28;20442;-65
2022/12/18 07:44:46;;;;;;;11.40;9.37;;;0.30;99.90;;;;;;6181284;28;20522;-66
2022/12/18 07:47:49;;;;;;;12.53;10.03;;;0.30;99.90;;;;;;6181254;28;20476;-64
2022/12/18 07:50:53;;;;;;;12.93;9.53;;;0.50;99.90;;;;;;6181454;28;20477;-64
2022/12/18 07:53:57;;;;;;;12.90;9.50;;;0.60;99.90;;;;;;6181018;28;20482;-65
2022/12/18 07:57:01;;;;;;;11.90;9.10;;;0.70;99.90;;;;;;6180830;28;20477;-65
2022/12/18 08:00:04;;;;;;;13.53;9.77;;;0.80;99.90;;;;;;6181428;28;20478;-65
2022/12/18 08:03:07;;;;;;;11.57;9.70;;;0.90;99.90;;;;;;6180447;28;20884;-65
2022/12/18 08:06:12;;;;;;;15.33;9.90;;;1.10;99.90;;;;;;6180800;28;20480;-64
2022/12/18 08:09:15;;;;;;;11.90;9.00;;;1.30;99.90;;;;;;6180139;28;20489;-64
2022/12/18 08:12:18;;;;;;;11.77;9.87;;;1.40;99.90;;;;;;6180864;28;20543;-64
2022/12/18 08:15:21;;;;;;;13.93;10.60;;;1.60;99.90;;;;;;6175022;28;20475;-64
2022/12/18 08:18:25;;;;;;;17.60;11.10;;;1.80;99.90;;;;;;6156359;28;20479;-64
2022/12/18 08:21:31;;;;;;;12.87;9.87;;;2.10;99.90;;;;;;6156324;28;20471;-64
2022/12/18 08:24:34;;;;;;;13.90;9.90;;;2.40;99.90;;;;;;6156638;28;20478;-64
2022/12/18 08:27:38;;;;;;;12.00;9.40;;;2.70;99.90;;;;;;6156529;28;20474;-64
2022/12/18 08:30:42;;;;;;;11.40;8.37;;;2.90;99.00;;;;;;6157599;28;20477;-64
2022/12/18 08:33:45;;;;;;;16.23;11.80;;;3.00;98.30;;;;;;6156833;28;20853;-64
2022/12/18 08:36:50;;;;;;;13.30;10.37;;;2.90;98.30;;;;;;6156359;28;20478;-64
2022/12/18 08:39:53;;;;;;;10.10;8.20;;;2.70;97.90;;;;;;6156107;28;20473;-64
2022/12/18 08:46:17;;;;;;;9.00;8.10;;;2.40;97.50;;;;;;6155847;28;20479;-64
2022/12/18 08:49:20;;;;;;;9.33;8.33;;;2.20;98.00;;;;;;6155739;28;20493;-64
2022/12/18 08:52:25;;;;;;;9.90;7.47;;;2.10;98.30;;;;;;6155149;28;20471;-64
2022/12/18 08:55:28;;;;;;;10.70;8.50;;;2.00;98.60;;;;;;6155757;28;20475;-64
2022/12/18 08:58:31;;;;;;;8.80;8.00;;;1.90;98.60;;;;;;6155756;28;20486;-64
2022/12/18 09:01:35;;;;;;;8.67;7.70;;;1.80;98.80;;;;;;6155695;28;20514;-64
2022/12/18 09:04:39;;;;;;;9.73;7.07;;;1.80;98.60;;;;;;6155589;28;20790;-64
2022/12/18 09:07:44;;;;;;;10.37;8.97;;;1.80;98.90;;;;;;6155663;28;20479;-64
2022/12/18 09:10:50;;;;;;;12.63;9.77;;;1.90;98.70;;;;;;6158445;28;20490;-64
2022/12/18 09:13:54;;;;;;;9.10;7.87;;;1.80;98.80;;;;;;6160585;28;20486;-65
2022/12/18 09:16:57;;;;;;;12.90;9.20;;;2.00;98.90;;;;;;6160318;28;20498;-64
2022/12/18 09:20:01;;;;;;;11.60;9.13;;;2.00;98.30;;;;;;6160048;28;20490;-64
2022/12/18 09:23:06;;;;;;;12.13;9.93;;;1.90;98.90;;;;;;6179000;28;20481;-64
2022/12/18 09:26:09;;;;;;;12.13;9.60;;;1.90;99.00;;;;;;6182081;28;20478;-64
2022/12/18 09:29:12;;;;;;;10.70;9.43;;;1.90;99.20;;;;;;6178883;28;20490;-64
2022/12/18 09:32:16;;;;;;;12.53;9.40;;;1.90;99.50;;;;;;6179795;28;20478;-65
2022/12/18 09:35:24;;;;;;;13.13;9.60;;;1.90;99.60;;;;;;6179163;28;20578;-64
2022/12/18 09:38:29;;;;;;;13.10;11.03;;;1.90;99.60;;;;;;6170490;28;20458;-64
2022/12/18 09:41:42;;;;;;;12.70;10.33;;;1.90;99.40;;;;;;6179171;28;20446;-65
2022/12/18 09:44:50;;;;;;;16.17;9.50;;;1.90;99.50;;;;;;6178863;28;20489;-64
2022/12/18 09:47:54;;;;;;;10.50;8.70;;;2.20;99.90;;;;;;6178627;28;20478;-64
2022/12/18 09:51:02;;;;;;;10.93;9.83;;;2.60;99.90;;;;;;6161194;28;20476;-64
2022/12/18 09:54:13;;;;;;;13.27;10.47;;;3.00;99.20;;;;;;6143401;28;20483;-64
2022/12/18 09:57:20;;;;;;;16.07;10.47;;;3.30;98.50;;;;;;6151896;28;20494;-65
2022/12/18 10:00:26;;;;;;;12.50;10.10;;;3.60;98.30;;;;;;6144591;28;20526;-65
2022/12/18 10:03:30;;;;;;;18.17;11.67;;;3.50;97.70;;;;;;6140411;28;20483;-65
2022/12/18 10:06:40;;;;;;;18.70;12.80;;;3.50;97.40;;;;;;6140503;28;20507;-65
2022/12/18 10:09:51;;;;;;;16.57;12.40;;;3.90;97.40;;;;;;6142035;28;20993;-65
2022/12/18 10:13:03;;;;;;;18.67;12.50;;;4.20;96.80;;;;;;6143542;28;20987;-65
2022/12/18 10:16:15;;;;;;;18.40;15.03;;;4.30;96.00;;;;;;6147349;28;20483;-65
2022/12/18 10:19:39;;;;;;;19.73;12.80;;;4.30;96.50;;;;;;6137016;28;20723;-63
2022/12/18 10:22:55;;;;;;;19.40;14.70;;;4.60;96.20;;;;;;6144240;28;20872;-65
2022/12/18 10:26:05;;;;;;;20.30;13.43;;;4.50;95.60;;;;;;6135306;28;20491;-65
2022/12/18 10:29:13;;;;;;;16.07;13.27;;;4.00;95.60;;;;;;6140470;28;20819;-65
2022/12/18 10:32:19;;;;;;;21.43;13.73;;;3.80;96.10;;;;;;6142843;28;21032;-64
2022/12/18 10:35:24;;;;;;;18.73;14.30;;;3.50;96.40;;;;;;6133609;28;20906;-64
2022/12/18 10:38:29;;;;;;;18.67;14.17;;;3.40;97.20;;;;;;6140485;28;20884;-64
2022/12/18 10:41:34;;;;;;;22.13;16.07;;;3.50;97.90;;;;;;6147452;28;20518;-64
2022/12/18 10:44:37;;;;;;;24.10;17.80;;;3.30;97.60;;;;;;6152739;28;20915;-64
2022/12/18 10:47:44;;;;;;;24.07;16.63;;;2.90;97.90;;;;;;6153319;28;20467;-64
2022/12/18 10:50:52;;;;;;;28.97;21.07;;;2.50;98.80;;;;;;6153164;28;20943;-64
2022/12/18 10:54:18;;;;;;;25.53;18.20;;;2.50;99.10;;;;;;6152513;28;20471;-64
2022/12/18 10:57:35;;;;;;;34.50;22.53;;;2.50;99.20;;;;;;6153182;28;20489;-65
2022/12/18 11:00:39;;;;;;;56.00;31.30;;;2.30;99.30;;;;;;6150742;28;20475;-64
2022/12/18 11:03:44;;;;;;;44.23;27.20;;;2.40;99.50;;;;;;6129209;28;20495;-64
2022/12/18 11:06:59;;;;;;;94.70;45.87;;;2.40;99.20;;;;;;6129430;28;20475;-64
2022/12/18 11:10:03;;;;;;;58.77;34.33;;;2.30;99.20;;;;;;6129859;28;20498;-64
2022/12/18 11:13:19;;;;;;;51.33;30.67;;;2.40;99.60;;;;;;6131293;29;20476;-65
2022/12/18 11:16:23;;;;;;;66.10;35.40;;;2.40;99.60;;;;;;6142659;28;20801;-64
2022/12/18 11:19:34;;;;;;;59.23;32.50;;;2.40;99.90;;;;;;6153140;28;20526;-64
2022/12/18 11:22:39;;;;;;;90.60;41.70;;;2.30;99.90;;;;;;6166777;28;20993;-64
2022/12/18 11:25:53;;;;;;;61.63;28.27;;;2.20;99.90;;;;;;6177084;28;20484;-64
2022/12/18 11:29:10;;;;;;;36.70;24.33;;;1.90;99.90;;;;;;6176871;28;20478;-64
2022/12/18 11:32:34;;;;;;;31.27;19.43;;;1.90;99.90;;;;;;6177193;28;20482;-64
2022/12/18 11:35:43;;;;;;;29.67;20.17;;;1.80;99.90;;;;;;6176501;28;20454;-64
2022/12/18 11:38:49;;;;;;;30.20;22.77;;;1.70;99.90;;;;;;6176315;28;20470;-64
2022/12/18 11:42:11;;;;;;;29.00;19.90;;;1.50;99.90;;;;;;6177087;28;20962;-64
2022/12/18 11:45:36;;;;;;;30.60;20.17;;;1.40;99.90;;;;;;6176853;28;20858;-64
2022/12/18 11:48:44;;;;;;;30.33;20.10;;;1.50;99.90;;;;;;6176670;28;20990;-64
2022/12/18 11:51:52;;;;;;;31.37;22.50;;;1.50;99.90;;;;;;6177116;28;20485;-63
2022/12/18 11:54:59;;;;;;;32.10;20.60;;;1.50;99.90;;;;;;6176426;28;20482;-64
2022/12/18 11:58:11;;;;;;;32.13;22.30;;;1.50;99.90;;;;;;6176681;28;20804;-64
2022/12/18 12:01:34;;;;;;;30.07;20.50;;;1.50;99.90;;;;;;6176490;28;20470;-64
2022/12/18 12:05:05;;;;;;;37.03;21.00;;;1.40;99.90;;;;;;6162452;28;20969;-64
2022/12/18 12:08:16;;;;;;;27.57;19.50;;;1.40;99.90;;;;;;6148911;28;20479;-64
2022/12/18 12:11:26;;;;;;;30.67;20.37;;;1.40;99.90;;;;;;6145401;28;20985;-64
2022/12/18 12:14:41;;;;;;;30.67;19.27;;;1.20;99.90;;;;;;6143054;28;20481;-64
2022/12/18 12:17:53;;;;;;;29.77;21.80;;;1.30;99.90;;;;;;6128884;28;20496;-64
2022/12/18 12:21:05;;;;;;;31.57;20.83;;;1.30;99.90;;;;;;6147172;28;20851;-64
2022/12/18 12:24:26;;;;;;;29.10;20.40;;;1.10;99.90;;;;;;6162432;28;20843;-63
2022/12/18 12:27:39;;;;;;;27.80;19.40;;;1.20;99.90;;;;;;6153067;28;20482;-63
2022/12/18 12:30:56;;;;;;;30.40;20.07;;;1.00;99.90;;;;;;6156784;28;20491;-64
2022/12/18 12:34:09;;;;;;;28.93;19.90;;;1.10;99.90;;;;;;6155804;28;20483;-62
2022/12/18 12:37:25;;;;;;;28.20;20.47;;;1.10;99.90;;;;;;6147757;28;20478;-63
2022/12/18 12:40:32;;;;;;;28.23;18.77;;;1.20;99.90;;;;;;6149194;28;21003;-62
2022/12/18 12:43:58;;;;;;;33.67;21.93;;;1.20;99.90;;;;;;6144281;28;20901;-62
2022/12/18 12:47:08;;;;;;;30.90;19.67;;;1.10;99.90;;;;;;6144609;28;20900;-63
2022/12/18 12:50:17;;;;;;;32.97;19.83;;;1.20;99.90;;;;;;6136084;28;20490;-63
2022/12/18 12:53:27;;;;;;;32.90;20.97;;;1.30;99.90;;;;;;6131431;28;20966;-62
2022/12/18 12:56:40;;;;;;;35.50;21.53;;;1.30;99.90;;;;;;6155397;28;20466;-62
2022/12/18 12:59:52;;;;;;;37.97;23.13;;;1.30;99.90;;;;;;6155161;28;20526;-62
2022/12/18 13:03:04;;;;;;;33.33;22.83;;;1.20;99.90;;;;;;6154815;28;20580;-62
2022/12/18 13:06:16;;;;;;;27.83;20.23;;;1.20;99.90;;;;;;6154966;28;20471;-62
2022/12/18 13:09:22;;;;;;;29.43;20.47;;;1.20;99.90;;;;;;6155018;28;20475;-63
2022/12/18 13:15:44;;;;;;;32.93;20.10;;;1.40;99.90;;;;;;6146463;28;20565;-62
2022/12/18 13:18:54;;;;;;;27.83;19.63;;;1.50;99.90;;;;;;6154916;28;20549;-62
2022/12/18 13:21:58;;;;;;;29.03;18.67;;;1.50;99.90;;;;;;6163638;28;20938;-62
2022/12/18 13:25:02;;;;;;;32.90;20.10;;;1.50;99.90;;;;;;6179378;28;20481;-62
2022/12/18 13:28:12;;;;;;;33.07;20.40;;;1.60;99.90;;;;;;6167882;28;20617;-62
2022/12/18 13:31:51;;;;;;;32.67;19.43;;;1.60;99.90;;;;;;6154359;28;20547;-62
2022/12/18 13:35:45;;;;;;;39.63;22.07;;;1.50;99.90;;;;;;6149672;28;20823;-62
2022/12/18 13:39:12;;;;;;;34.03;22.07;;;1.50;99.90;;;;;;6151176;28;20474;-62
2022/12/18 13:46:29;;;;;;;37.10;22.30;;;1.40;99.90;;;;;;6152072;28;20823;-63
2022/12/18 13:49:39;;;;;;;32.93;21.00;;;1.40;99.90;;;;;;6152562;28;20486;-64
2022/12/18 13:52:44;;;;;;;33.93;20.73;;;1.40;99.90;;;;;;6154010;28;20478;-64
2022/12/18 13:55:50;;;;;;;35.97;22.07;;;1.30;99.90;;;;;;6145752;28;20498;-64
2022/12/18 13:59:17;;;;;;;51.70;26.27;;;1.40;99.90;;;;;;6153781;28;20826;-62
2022/12/18 14:02:23;;;;;;;33.87;22.63;;;1.40;99.90;;;;;;6154276;28;20793;-63
2022/12/18 14:05:29;;;;;;;40.10;24.30;;;1.30;99.90;;;;;;6155357;28;20458;-63
2022/12/18 14:08:39;;;;;;;33.43;21.33;;;1.30;99.90;;;;;;6154185;28;20462;-63
2022/12/18 14:11:49;;;;;;;39.10;22.10;;;1.20;99.90;;;;;;6154538;28;20798;-65
2022/12/18 14:14:54;;;;;;;40.90;23.13;;;1.20;99.90;;;;;;6154945;28;20475;-65
2022/12/18 14:18:00;;;;;;;33.57;21.20;;;1.30;99.90;;;;;;6155732;28;20875;-63
2022/12/18 14:21:05;;;;;;;46.47;28.80;;;1.40;99.90;;;;;;6154294;28;20485;-63
2022/12/18 14:24:16;;;;;;;45.23;26.33;;;1.30;99.90;;;;;;6154914;28;20494;-64
2022/12/18 14:27:26;;;;;;;37.13;21.40;;;1.20;99.90;;;;;;6153027;28;20489;-65
2022/12/18 14:30:31;;;;;;;44.43;26.70;;;1.20;99.90;;;;;;6153144;28;21009;-65
2022/12/18 14:33:35;;;;;;;38.63;24.20;;;1.10;99.90;;;;;;6153518;28;20479;-61
2022/12/18 14:36:39;;;;;;;38.73;24.20;;;1.00;99.90;;;;;;6153467;28;20817;-62
2022/12/18 14:39:54;;;;;;;40.57;25.77;;;0.80;99.90;;;;;;6153488;28;20500;-62
2022/12/18 14:42:59;;;;;;;42.53;24.67;;;0.80;99.90;;;;;;6133421;28;20783;-62
2022/12/18 14:46:03;;;;;;;40.10;23.97;;;0.90;99.90;;;;;;6139343;28;20478;-63
2022/12/18 14:49:22;;;;;;;46.13;25.00;;;1.00;99.90;;;;;;6152636;28;20877;-63
2022/12/18 14:52:32;;;;;;;37.13;22.13;;;1.10;99.90;;;;;;6151984;28;20486;-62
2022/12/18 14:55:36;;;;;;;55.13;34.97;;;1.20;99.90;;;;;;6152245;28;20487;-62
2022/12/18 14:58:44;;;;;;;43.80;27.77;;;1.30;99.90;;;;;;6148411;28;20966;-63
2022/12/18 15:01:56;;;;;;;35.53;22.07;;;1.30;99.90;;;;;;6152801;28;20470;-63
2022/12/18 15:05:04;;;;;;;37.47;22.50;;;1.30;99.90;;;;;;6152459;28;20522;-65
2022/12/18 15:08:35;;;;;;;40.50;25.17;;;1.20;99.90;;;;;;6152496;28;20475;-65
2022/12/18 15:11:47;;;;;;;35.70;21.30;;;1.20;99.90;;;;;;6152640;28;20483;-65
2022/12/18 15:15:02;;;;;;;42.37;21.93;;;1.20;99.90;;;;;;6151921;28;20967;-64
2022/12/18 15:18:15;;;;;;;32.97;21.33;;;1.20;99.90;;;;;;6152602;28;20479;-63
2022/12/18 15:21:20;;;;;;;34.80;24.13;;;1.10;99.90;;;;;;6155964;28;20467;-61
2022/12/18 15:24:30;;;;;;;31.87;21.50;;;1.10;99.90;;;;;;6176342;28;20489;-60
2022/12/18 15:27:37;;;;;;;38.80;22.73;;;1.20;99.90;;;;;;6168250;28;20475;-65
2022/12/18 15:31:00;;;;;;;40.40;23.57;;;1.10;99.90;;;;;;6152120;28;20537;-65
2022/12/18 15:34:20;;;;;;;42.43;22.70;;;1.00;99.90;;;;;;6152486;28;20486;-65
2022/12/18 15:37:24;;;;;;;54.80;30.17;;;1.00;99.90;;;;;;6152093;28;21203;-65
2022/12/18 15:40:28;;;;;;;46.87;28.17;;;1.10;99.90;;;;;;6152005;28;20959;-66
2022/12/18 15:43:36;;;;;;;53.37;29.73;;;1.10;99.90;;;;;;6152229;28;20475;-66
2022/12/18 15:46:42;;;;;;;40.43;22.43;;;1.10;99.90;;;;;;6151929;28;20475;-66
2022/12/18 15:49:47;;;;;;;36.47;21.40;;;1.10;99.90;;;;;;6152737;28;20478;-65
2022/12/18 15:52:54;;;;;;;33.43;20.13;;;1.10;99.90;;;;;;6175876;28;20495;-65
2022/12/18 15:59:24;;;;;;;35.23;22.57;;;1.00;99.90;;;;;;6156276;28;20701;-64
2022/12/18 16:02:30;;;;;;;36.63;20.33;;;1.00;99.90;;;;;;6169658;28;20451;-64
2022/12/18 16:05:34;;;;;;;32.77;18.53;;;1.10;99.90;;;;;;6160982;28;20578;-64
2022/12/18 16:08:38;;;;;;;36.43;21.57;;;1.00;99.90;;;;;;6139748;28;20452;-64
2022/12/18 16:11:47;;;;;;;38.00;22.27;;;1.00;99.90;;;;;;6135497;28;20916;-64
2022/12/18 16:14:51;;;;;;;34.47;20.83;;;0.90;99.90;;;;;;6144051;28;20480;-66
2022/12/18 16:18:00;;;;;;;34.77;21.27;;;0.90;99.90;;;;;;6156296;28;20474;-66